Time;durP1;ratioP1;P1;durP2;ratioP2;P2;SDS_P1;SDS_P2;PMS_P1;PMS_P2;Temp;Humidity;BMP_temperature;BMP_pressure;BME280_temperature;BME280_humidity;BME280_pressure;Samples;Min_cycle;Max_cycle;Signal;HPM_P1;HPM_P2
2021/05/08 00:01:46;;;;;;;0.20;0.20;;;;;;;;;;5054782;28;20107;-74
2021/05/08 00:04:11;;;;;;;0.20;0.20;;;;;;;;;;5028707;28;20264;-73
2021/05/08 00:06:36;;;;;;;0.20;0.20;;;;;;;;;;5042688;28;20052;-72
2021/05/08 00:09:06;;;;;;;0.20;0.20;;;;;;;;;;5024876;28;20135;-73
2021/05/08 00:11:32;;;;;;;0.20;0.20;;;;;;;;;;5042150;28;21349;-72
2021/05/08 00:13:57;;;;;;;0.20;0.20;;;;;;;;;;5029932;28;20019;-71
2021/05/08 00:16:22;;;;;;;0.20;0.20;;;;;;;;;;5043126;28;20059;-74
2021/05/08 00:18:48;;;;;;;0.20;0.20;;;;;;;;;;5044573;28;20025;-73
2021/05/08 00:21:13;;;;;;;0.20;0.20;;;;;;;;;;5039801;28;20084;-71
2021/05/08 00:23:38;;;;;;;0.20;0.20;;;;;;;;;;5042544;28;20298;-71
2021/05/08 00:26:03;;;;;;;0.20;0.20;;;;;;;;;;5046099;28;20363;-72
2021/05/08 00:28:28;;;;;;;0.20;0.20;;;;;;;;;;5042986;28;20333;-71
2021/05/08 00:30:54;;;;;;;0.20;0.20;;;;;;;;;;5026385;28;20445;-70
2021/05/08 00:33:19;;;;;;;0.20;0.20;;;;;;;;;;5044648;28;20266;-71
2021/05/08 00:35:44;;;;;;;0.20;0.20;;;;;;;;;;5041949;28;20032;-70
2021/05/08 00:38:09;;;;;;;0.20;0.20;;;;;;;;;;5041710;28;20601;-71
2021/05/08 00:40:34;;;;;;;0.20;0.20;;;;;;;;;;5044166;28;20595;-70
2021/05/08 00:42:59;;;;;;;0.20;0.20;;;;;;;;;;5038833;28;20276;-70
2021/05/08 00:45:25;;;;;;;0.20;0.20;;;;;;;;;;5043508;28;20350;-71
2021/05/08 00:47:50;;;;;;;0.20;0.20;;;;;;;;;;5045585;28;20270;-70
2021/05/08 00:50:19;;;;;;;0.20;0.20;;;;;;;;;;5028293;28;20337;-70
2021/05/08 00:52:44;;;;;;;0.20;0.20;;;;;;;;;;5044903;28;20112;-70
2021/05/08 00:55:09;;;;;;;0.20;0.20;;;;;;;;;;5041463;28;20048;-70
2021/05/08 00:57:34;;;;;;;0.20;0.20;;;;;;;;;;5045677;28;20105;-70
2021/05/08 01:00:00;;;;;;;0.30;0.30;;;;;;;;;;5041932;28;20092;-70
2021/05/08 01:02:25;;;;;;;0.30;0.30;;;;;;;;;;5043198;28;20099;-70
2021/05/08 01:04:50;;;;;;;0.20;0.20;;;;;;;;;;5041577;28;20021;-70
2021/05/08 01:07:15;;;;;;;0.30;0.30;;;;;;;;;;5041738;28;20045;-70
2021/05/08 01:09:41;;;;;;;0.30;0.30;;;;;;;;;;5024054;28;20086;-72
2021/05/08 01:12:06;;;;;;;0.20;0.20;;;;;;;;;;5041913;28;20633;-72
2021/05/08 01:14:32;;;;;;;0.20;0.20;;;;;;;;;;5043443;28;20021;-72
2021/05/08 01:16:57;;;;;;;0.20;0.20;;;;;;;;;;5043613;28;20044;-72
2021/05/08 01:19:22;;;;;;;0.20;0.20;;;;;;;;;;5025237;28;20018;-72
2021/05/08 01:21:47;;;;;;;0.20;0.20;;;;;;;;;;5041093;28;20267;-72
2021/05/08 01:24:13;;;;;;;0.30;0.30;;;;;;;;;;5045081;28;20268;-72
2021/05/08 01:26:38;;;;;;;0.20;0.20;;;;;;;;;;5038823;28;20028;-72
2021/05/08 01:29:04;;;;;;;0.30;0.30;;;;;;;;;;5042328;28;20032;-72
2021/05/08 01:31:29;;;;;;;0.20;0.20;;;;;;;;;;5043378;28;20029;-72
2021/05/08 01:33:54;;;;;;;0.20;0.20;;;;;;;;;;5041346;28;20096;-71
2021/05/08 01:36:19;;;;;;;0.30;0.30;;;;;;;;;;5040335;28;20017;-70
2021/05/08 01:38:44;;;;;;;0.30;0.30;;;;;;;;;;5041169;28;20318;-72
2021/05/08 01:41:11;;;;;;;0.20;0.20;;;;;;;;;;5027237;28;20013;-72
2021/05/08 01:43:36;;;;;;;0.20;0.20;;;;;;;;;;5043516;28;20256;-72
2021/05/08 01:46:02;;;;;;;0.28;0.28;;;;;;;;;;5024331;28;20436;-72
2021/05/08 01:48:27;;;;;;;0.20;0.20;;;;;;;;;;5041120;28;20492;-72
2021/05/08 01:50:52;;;;;;;0.30;0.30;;;;;;;;;;5041663;28;20025;-72
2021/05/08 01:53:17;;;;;;;0.30;0.30;;;;;;;;;;5026589;28;20041;-72
2021/05/08 01:55:43;;;;;;;0.30;0.30;;;;;;;;;;5027507;28;20068;-71
2021/05/08 01:58:08;;;;;;;0.30;0.30;;;;;;;;;;5044033;28;20025;-70
2021/05/08 02:00:37;;;;;;;0.30;0.30;;;;;;;;;;5043066;28;20028;-70
2021/05/08 02:03:03;;;;;;;0.20;0.20;;;;;;;;;;5047857;28;20032;-70
2021/05/08 02:05:29;;;;;;;0.30;0.30;;;;;;;;;;5047166;28;20017;-71
2021/05/08 02:07:54;;;;;;;0.30;0.30;;;;;;;;;;5046457;28;20024;-70
2021/05/08 02:10:19;;;;;;;0.30;0.30;;;;;;;;;;5049718;28;20044;-70
2021/05/08 02:12:44;;;;;;;0.20;0.20;;;;;;;;;;5027317;28;20032;-72
2021/05/08 02:15:13;;;;;;;0.30;0.30;;;;;;;;;;5028015;28;20500;-71
2021/05/08 02:17:39;;;;;;;0.22;0.22;;;;;;;;;;5044119;28;20296;-72
2021/05/08 02:20:05;;;;;;;0.22;0.22;;;;;;;;;;5026402;28;20060;-71
2021/05/08 02:22:30;;;;;;;0.20;0.20;;;;;;;;;;5027906;28;20021;-71
2021/05/08 02:24:55;;;;;;;0.30;0.30;;;;;;;;;;5044322;28;20029;-71
2021/05/08 02:27:21;;;;;;;0.30;0.30;;;;;;;;;;5044051;28;20021;-72
2021/05/08 02:29:46;;;;;;;0.28;0.28;;;;;;;;;;5049839;28;20410;-70
2021/05/08 02:32:11;;;;;;;0.30;0.30;;;;;;;;;;5032166;28;20020;-70
2021/05/08 02:34:37;;;;;;;0.20;0.20;;;;;;;;;;5047575;28;20029;-70
2021/05/08 02:37:02;;;;;;;0.30;0.30;;;;;;;;;;5046426;28;20264;-70
2021/05/08 02:39:27;;;;;;;0.30;0.30;;;;;;;;;;5044307;28;20760;-70
2021/05/08 02:41:52;;;;;;;0.30;0.30;;;;;;;;;;5027656;28;20045;-70
2021/05/08 02:44:17;;;;;;;0.30;0.30;;;;;;;;;;5029337;28;20036;-70
2021/05/08 02:46:44;;;;;;;0.20;0.20;;;;;;;;;;5045910;28;20326;-70
2021/05/08 02:49:09;;;;;;;0.20;0.20;;;;;;;;;;5045413;28;20111;-70
2021/05/08 02:51:34;;;;;;;0.30;0.30;;;;;;;;;;5028318;28;20037;-70
2021/05/08 02:54:00;;;;;;;0.23;0.23;;;;;;;;;;5030272;28;20985;-70
2021/05/08 02:56:25;;;;;;;0.20;0.20;;;;;;;;;;5043837;28;20271;-70
2021/05/08 02:58:50;;;;;;;0.23;0.23;;;;;;;;;;5045211;28;20029;-72
2021/05/08 03:01:15;;;;;;;0.30;0.30;;;;;;;;;;5025035;28;20629;-72
2021/05/08 03:03:40;;;;;;;0.30;0.30;;;;;;;;;;5030109;28;20017;-72
2021/05/08 03:06:05;;;;;;;0.30;0.30;;;;;;;;;;5026581;28;20267;-72
2021/05/08 03:08:31;;;;;;;0.20;0.20;;;;;;;;;;5025084;28;20948;-70
2021/05/08 03:10:56;;;;;;;0.30;0.30;;;;;;;;;;5046422;28;20048;-70
2021/05/08 03:13:21;;;;;;;0.30;0.30;;;;;;;;;;5043792;28;20463;-70
2021/05/08 03:15:46;;;;;;;0.30;0.30;;;;;;;;;;5046962;28;20299;-70
2021/05/08 03:18:11;;;;;;;0.20;0.20;;;;;;;;;;5043130;28;20373;-70
2021/05/08 03:20:37;;;;;;;0.30;0.30;;;;;;;;;;5043688;28;20264;-70
2021/05/08 03:23:02;;;;;;;0.20;0.20;;;;;;;;;;5042133;28;20032;-70
2021/05/08 03:25:27;;;;;;;0.20;0.20;;;;;;;;;;5027091;28;20033;-70
2021/05/08 03:27:53;;;;;;;0.30;0.30;;;;;;;;;;5044319;28;20071;-70
2021/05/08 03:30:18;;;;;;;0.30;0.30;;;;;;;;;;5042842;28;20603;-70
2021/05/08 03:32:43;;;;;;;0.30;0.30;;;;;;;;;;5044593;28;20279;-70
2021/05/08 03:35:09;;;;;;;0.30;0.30;;;;;;;;;;5028421;28;20047;-70
2021/05/08 03:37:34;;;;;;;0.30;0.30;;;;;;;;;;5027193;28;20032;-70
2021/05/08 03:40:01;;;;;;;0.30;0.30;;;;;;;;;;5044064;28;20025;-70
2021/05/08 03:42:27;;;;;;;0.30;0.30;;;;;;;;;;5045081;28;20303;-70
2021/05/08 03:44:52;;;;;;;0.30;0.30;;;;;;;;;;5045032;28;20397;-71
2021/05/08 03:47:17;;;;;;;0.30;0.30;;;;;;;;;;5043465;28;20275;-70
2021/05/08 03:49:42;;;;;;;0.30;0.30;;;;;;;;;;5042734;28;20033;-70
2021/05/08 03:52:07;;;;;;;0.30;0.30;;;;;;;;;;5045651;28;20276;-70
2021/05/08 03:54:33;;;;;;;0.20;0.20;;;;;;;;;;5029405;28;20298;-71
2021/05/08 03:56:59;;;;;;;0.20;0.20;;;;;;;;;;5045324;28;20268;-70
2021/05/08 03:59:24;;;;;;;0.20;0.20;;;;;;;;;;5024899;28;20013;-70
2021/05/08 04:01:49;;;;;;;0.20;0.20;;;;;;;;;;5042334;28;20052;-70
2021/05/08 04:04:15;;;;;;;0.30;0.30;;;;;;;;;;5027404;28;20025;-70
2021/05/08 04:06:40;;;;;;;0.30;0.30;;;;;;;;;;5041417;28;20020;-71
2021/05/08 04:09:05;;;;;;;0.30;0.30;;;;;;;;;;5046264;28;20276;-72
2021/05/08 04:11:31;;;;;;;0.30;0.30;;;;;;;;;;5044632;28;20744;-72
2021/05/08 04:13:56;;;;;;;0.30;0.30;;;;;;;;;;5024064;28;20021;-72
2021/05/08 04:16:21;;;;;;;0.30;0.30;;;;;;;;;;5041846;28;20267;-72
2021/05/08 04:18:46;;;;;;;0.23;0.23;;;;;;;;;;5025342;28;20314;-72
2021/05/08 04:21:12;;;;;;;0.30;0.30;;;;;;;;;;5041467;28;20269;-72
2021/05/08 04:23:37;;;;;;;0.30;0.30;;;;;;;;;;5023733;28;20470;-71
2021/05/08 04:26:02;;;;;;;0.30;0.30;;;;;;;;;;5027005;28;20267;-71
2021/05/08 04:28:27;;;;;;;0.30;0.30;;;;;;;;;;5024065;28;20024;-70
2021/05/08 04:30:52;;;;;;;0.30;0.30;;;;;;;;;;5048582;28;20284;-71
2021/05/08 04:33:18;;;;;;;0.30;0.30;;;;;;;;;;5053356;28;20268;-72
2021/05/08 04:35:43;;;;;;;0.30;0.30;;;;;;;;;;5054045;28;20295;-71
2021/05/08 04:38:08;;;;;;;0.30;0.30;;;;;;;;;;5050795;28;20070;-72
2021/05/08 04:40:33;;;;;;;0.30;0.30;;;;;;;;;;5051283;28;20039;-72
2021/05/08 04:42:59;;;;;;;0.30;0.30;;;;;;;;;;5055566;28;20803;-72
2021/05/08 04:45:25;;;;;;;0.30;0.30;;;;;;;;;;5033208;28;20271;-72
2021/05/08 04:47:52;;;;;;;0.30;0.30;;;;;;;;;;5045750;28;20263;-72
2021/05/08 04:50:17;;;;;;;0.30;0.30;;;;;;;;;;5028346;28;20036;-70
2021/05/08 04:52:42;;;;;;;0.30;0.30;;;;;;;;;;5030920;28;20037;-69
2021/05/08 04:55:07;;;;;;;0.23;0.23;;;;;;;;;;5044398;28;20601;-70
2021/05/08 04:57:32;;;;;;;0.30;0.30;;;;;;;;;;5039860;28;20307;-69
2021/05/08 04:59:58;;;;;;;0.30;0.30;;;;;;;;;;5042102;28;20032;-72
2021/05/08 05:02:23;;;;;;;0.30;0.30;;;;;;;;;;5044862;28;20355;-71
2021/05/08 05:04:48;;;;;;;0.30;0.30;;;;;;;;;;5022982;28;20275;-70
2021/05/08 05:07:14;;;;;;;0.30;0.30;;;;;;;;;;5024260;28;20276;-70
2021/05/08 05:09:39;;;;;;;0.30;0.30;;;;;;;;;;5023955;28;20041;-72
2021/05/08 05:12:04;;;;;;;0.30;0.30;;;;;;;;;;5042426;28;20024;-72
2021/05/08 05:14:30;;;;;;;0.30;0.30;;;;;;;;;;5042395;28;20481;-72
2021/05/08 05:16:55;;;;;;;0.30;0.30;;;;;;;;;;5043322;28;20029;-73
2021/05/08 05:19:20;;;;;;;0.30;0.30;;;;;;;;;;5039517;28;20020;-73
2021/05/08 05:21:45;;;;;;;0.25;0.25;;;;;;;;;;5024081;28;20052;-72
2021/05/08 05:24:11;;;;;;;0.30;0.30;;;;;;;;;;5025679;28;20074;-73
2021/05/08 05:26:36;;;;;;;0.30;0.30;;;;;;;;;;5024840;28;20024;-72
2021/05/08 05:29:02;;;;;;;0.30;0.30;;;;;;;;;;5023275;28;20099;-72
2021/05/08 05:31:27;;;;;;;0.30;0.30;;;;;;;;;;5027519;28;20029;-72
2021/05/08 05:33:53;;;;;;;0.20;0.20;;;;;;;;;;5043911;28;20036;-71
2021/05/08 05:36:18;;;;;;;0.20;0.20;;;;;;;;;;5039840;28;20280;-71
2021/05/08 05:38:43;;;;;;;0.30;0.30;;;;;;;;;;5025455;28;20021;-71
2021/05/08 05:41:09;;;;;;;0.30;0.30;;;;;;;;;;5042413;28;20777;-72
2021/05/08 05:43:34;;;;;;;0.30;0.30;;;;;;;;;;5042038;28;20406;-70
2021/05/08 05:45:59;;;;;;;0.20;0.20;;;;;;;;;;5046703;28;20060;-71
2021/05/08 05:48:24;;;;;;;0.20;0.20;;;;;;;;;;5041934;28;20048;-72
2021/05/08 05:50:50;;;;;;;0.30;0.30;;;;;;;;;;5025594;28;20306;-72
2021/05/08 05:53:15;;;;;;;0.30;0.30;;;;;;;;;;5041278;28;20260;-72
2021/05/08 05:55:41;;;;;;;0.20;0.20;;;;;;;;;;5041960;28;20009;-72
2021/05/08 05:58:06;;;;;;;0.30;0.30;;;;;;;;;;5024346;28;20021;-70
2021/05/08 06:00:31;;;;;;;0.20;0.20;;;;;;;;;;5026030;28;20029;-72
2021/05/08 06:02:56;;;;;;;0.20;0.20;;;;;;;;;;5041186;28;20810;-71
2021/05/08 06:05:22;;;;;;;0.30;0.30;;;;;;;;;;5043660;28;20021;-72
2021/05/08 06:07:47;;;;;;;0.22;0.22;;;;;;;;;;5039945;28;20100;-72
2021/05/08 06:10:12;;;;;;;0.30;0.30;;;;;;;;;;5043194;28;20079;-72
2021/05/08 06:12:37;;;;;;;0.20;0.20;;;;;;;;;;5025771;28;20371;-72
2021/05/08 06:15:03;;;;;;;0.30;0.30;;;;;;;;;;5025559;28;20037;-72
2021/05/08 06:17:29;;;;;;;0.30;0.30;;;;;;;;;;5025927;28;20025;-72
2021/05/08 06:19:54;;;;;;;0.30;0.30;;;;;;;;;;5024491;28;20179;-71
2021/05/08 06:22:19;;;;;;;0.20;0.20;;;;;;;;;;5024391;28;20260;-72
2021/05/08 06:24:44;;;;;;;0.30;0.30;;;;;;;;;;5025787;28;20362;-72
2021/05/08 06:27:09;;;;;;;0.20;0.20;;;;;;;;;;5042658;28;20393;-71
2021/05/08 06:29:38;;;;;;;0.23;0.23;;;;;;;;;;5043186;28;20279;-73
2021/05/08 06:32:03;;;;;;;0.20;0.20;;;;;;;;;;5041702;28;20283;-73
2021/05/08 06:34:28;;;;;;;0.20;0.20;;;;;;;;;;5045039;28;20035;-72
2021/05/08 06:36:54;;;;;;;0.20;0.20;;;;;;;;;;5023945;28;20013;-75
2021/05/08 06:39:19;;;;;;;0.20;0.20;;;;;;;;;;5042277;28;20294;-73
2021/05/08 06:41:44;;;;;;;0.20;0.20;;;;;;;;;;5040585;28;20056;-73
2021/05/08 06:44:09;;;;;;;0.20;0.20;;;;;;;;;;5041313;28;20155;-70
2021/05/08 06:46:35;;;;;;;0.20;0.20;;;;;;;;;;5048837;28;20025;-72
2021/05/08 06:49:00;;;;;;;0.20;0.20;;;;;;;;;;5027889;28;20023;-70
2021/05/08 06:51:25;;;;;;;0.20;0.20;;;;;;;;;;5044482;28;20462;-70
2021/05/08 06:53:50;;;;;;;0.20;0.20;;;;;;;;;;5046065;28;20366;-70
2021/05/08 06:56:16;;;;;;;0.20;0.20;;;;;;;;;;5035061;28;20100;-70
2021/05/08 06:58:41;;;;;;;0.20;0.20;;;;;;;;;;5027076;28;20049;-70
2021/05/08 07:01:07;;;;;;;0.20;0.20;;;;;;;;;;5043020;28;20036;-71
2021/05/08 07:03:32;;;;;;;0.20;0.20;;;;;;;;;;5045101;28;20025;-70
2021/05/08 07:05:57;;;;;;;0.20;0.20;;;;;;;;;;5044655;28;20017;-71
2021/05/08 07:08:22;;;;;;;0.20;0.20;;;;;;;;;;5043948;28;20063;-71
2021/05/08 07:10:48;;;;;;;0.20;0.20;;;;;;;;;;5030016;28;20615;-72
2021/05/08 07:13:14;;;;;;;0.20;0.20;;;;;;;;;;5024840;28;20274;-72
2021/05/08 07:15:39;;;;;;;0.20;0.20;;;;;;;;;;5045546;28;20039;-70
2021/05/08 07:18:04;;;;;;;0.20;0.20;;;;;;;;;;5044139;28;20032;-71
2021/05/08 07:20:30;;;;;;;0.20;0.20;;;;;;;;;;5027943;28;20100;-71
2021/05/08 07:22:55;;;;;;;0.20;0.20;;;;;;;;;;5042198;28;20029;-71
2021/05/08 07:25:20;;;;;;;0.20;0.20;;;;;;;;;;5047314;28;20482;-72
2021/05/08 07:27:46;;;;;;;0.20;0.20;;;;;;;;;;5025661;28;20457;-72
2021/05/08 07:30:11;;;;;;;0.20;0.20;;;;;;;;;;5043070;28;20013;-71
2021/05/08 07:32:38;;;;;;;0.10;0.10;;;;;;;;;;5047306;28;20381;-72
2021/05/08 07:35:03;;;;;;;0.20;0.20;;;;;;;;;;5044522;28;20465;-71
2021/05/08 07:37:28;;;;;;;0.20;0.20;;;;;;;;;;5038825;28;20065;-71
2021/05/08 07:39:53;;;;;;;0.20;0.20;;;;;;;;;;5046466;28;20771;-71
2021/05/08 07:42:19;;;;;;;0.20;0.20;;;;;;;;;;5042453;28;20409;-71
2021/05/08 07:44:44;;;;;;;0.10;0.10;;;;;;;;;;5044220;28;20033;-73
2021/05/08 07:47:13;;;;;;;0.17;0.17;;;;;;;;;;5042489;28;20025;-72
2021/05/08 07:49:38;;;;;;;0.20;0.20;;;;;;;;;;5042622;28;20040;-72
2021/05/08 07:52:03;;;;;;;0.10;0.10;;;;;;;;;;5044805;28;20025;-71
2021/05/08 07:54:28;;;;;;;0.13;0.13;;;;;;;;;;5042990;28;20271;-72
2021/05/08 07:56:54;;;;;;;0.20;0.20;;;;;;;;;;5042974;28;20028;-72
2021/05/08 07:59:19;;;;;;;0.15;0.15;;;;;;;;;;5044006;28;20264;-73
2021/05/08 08:01:44;;;;;;;0.10;0.10;;;;;;;;;;5030087;28;20051;-75
2021/05/08 08:04:09;;;;;;;0.20;0.20;;;;;;;;;;5028141;28;20028;-75
2021/05/08 08:06:35;;;;;;;0.10;0.10;;;;;;;;;;5044444;28;20035;-75
2021/05/08 08:09:00;;;;;;;0.10;0.10;;;;;;;;;;5042681;28;20075;-74
2021/05/08 08:11:25;;;;;;;0.10;0.10;;;;;;;;;;5028005;28;20104;-74
2021/05/08 08:13:50;;;;;;;0.20;0.20;;;;;;;;;;5045949;28;20256;-73
2021/05/08 08:16:15;;;;;;;0.10;0.10;;;;;;;;;;5045205;28;20374;-74
2021/05/08 08:18:40;;;;;;;0.10;0.10;;;;;;;;;;5048566;28;20338;-73
2021/05/08 08:21:06;;;;;;;0.10;0.10;;;;;;;;;;5044598;28;20271;-72
2021/05/08 08:23:31;;;;;;;0.10;0.10;;;;;;;;;;5041647;28;20270;-73
2021/05/08 08:25:56;;;;;;;0.10;0.10;;;;;;;;;;5044818;28;20025;-72
2021/05/08 08:28:21;;;;;;;0.10;0.10;;;;;;;;;;5041656;28;20022;-72
2021/05/08 08:30:46;;;;;;;0.10;0.10;;;;;;;;;;5031149;28;20394;-74
2021/05/08 08:33:12;;;;;;;0.10;0.10;;;;;;;;;;5042675;28;20271;-74
2021/05/08 08:35:37;;;;;;;0.10;0.10;;;;;;;;;;5044576;28;20017;-74
2021/05/08 08:38:02;;;;;;;0.10;0.10;;;;;;;;;;5026465;28;20017;-74
2021/05/08 08:40:28;;;;;;;0.10;0.10;;;;;;;;;;5028331;28;20353;-75
2021/05/08 08:42:53;;;;;;;0.10;0.10;;;;;;;;;;5024240;28;20487;-74
2021/05/08 08:45:18;;;;;;;0.10;0.10;;;;;;;;;;5028237;28;20024;-74
2021/05/08 08:47:43;;;;;;;0.10;0.10;;;;;;;;;;5024502;28;20032;-74
2021/05/08 08:50:09;;;;;;;0.10;0.10;;;;;;;;;;5042946;28;20259;-74
2021/05/08 08:52:34;;;;;;;0.10;0.10;;;;;;;;;;5048750;28;20116;-74
2021/05/08 08:55:00;;;;;;;0.10;0.10;;;;;;;;;;5029970;28;20135;-75
2021/05/08 08:57:32;;;;;;;0.10;0.10;;;;;;;;;;5046505;28;20033;-75
2021/05/08 08:59:57;;;;;;;0.00;0.00;;;;;;;;;;5043741;28;20296;-74
2021/05/08 09:02:24;;;;;;;0.10;0.10;;;;;;;;;;5047917;28;20714;-74
2021/05/08 09:04:49;;;;;;;0.10;0.10;;;;;;;;;;5037643;28;20511;-74
2021/05/08 09:07:14;;;;;;;0.10;0.10;;;;;;;;;;5047747;28;20028;-74
2021/05/08 09:09:40;;;;;;;0.00;0.00;;;;;;;;;;5044360;28;20679;-74
2021/05/08 09:12:05;;;;;;;0.10;0.10;;;;;;;;;;5041407;28;20111;-74
2021/05/08 09:14:32;;;;;;;0.10;0.10;;;;;;;;;;5055245;28;20606;-73
2021/05/08 09:17:11;;;;;;;0.10;0.10;;;;;;;;;;5049181;28;20066;-73
2021/05/08 09:19:37;;;;;;;0.00;0.00;;;;;;;;;;5057221;28;20013;-73
2021/05/08 09:22:20;;;;;;;0.00;0.00;;;;;;;;;;5025484;28;20535;-75
2021/05/08 09:25:03;;;;;;;0.00;0.00;;;;;;;;;;5049521;28;20047;-74
2021/05/08 09:27:35;;;;;;;0.00;0.00;;;;;;;;;;5052628;28;20134;-74
2021/05/08 09:30:06;;;;;;;0.10;0.10;;;;;;;;;;5052603;28;20057;-73
2021/05/08 09:32:38;;;;;;;0.00;0.00;;;;;;;;;;5037500;28;20032;-74
2021/05/08 09:35:05;;;;;;;0.00;0.00;;;;;;;;;;5045723;28;20499;-73
2021/05/08 09:37:30;;;;;;;0.00;0.00;;;;;;;;;;5052886;28;20017;-74
2021/05/08 09:39:55;;;;;;;0.00;0.00;;;;;;;;;;5052125;28;20121;-75
2021/05/08 09:42:20;;;;;;;0.00;0.00;;;;;;;;;;5052385;28;20301;-74
2021/05/08 09:44:56;;;;;;;0.00;0.00;;;;;;;;;;5053425;28;20292;-73
2021/05/08 09:47:27;;;;;;;0.00;0.00;;;;;;;;;;5029261;28;20026;-74
2021/05/08 09:49:56;;;;;;;0.00;0.00;;;;;;;;;;5054184;28;20017;-73
2021/05/08 09:52:21;;;;;;;0.03;0.03;;;;;;;;;;5024534;28;20056;-75
2021/05/08 09:55:00;;;;;;;0.00;0.00;;;;;;;;;;5047517;28;20477;-74
2021/05/08 09:57:25;;;;;;;0.00;0.00;;;;;;;;;;5050750;28;20325;-74
2021/05/08 09:59:51;;;;;;;0.00;0.00;;;;;;;;;;5047383;28;20033;-74
2021/05/08 10:02:16;;;;;;;0.00;0.00;;;;;;;;;;5044976;28;20275;-75
2021/05/08 10:04:45;;;;;;;0.00;0.00;;;;;;;;;;5032327;28;20158;-75
2021/05/08 10:07:11;;;;;;;0.00;0.00;;;;;;;;;;5046048;28;21189;-75
2021/05/08 10:09:36;;;;;;;0.00;0.00;;;;;;;;;;5045845;28;20025;-74
2021/05/08 10:12:02;;;;;;;0.00;0.00;;;;;;;;;;5042463;28;20025;-75
2021/05/08 10:14:27;;;;;;;0.00;0.00;;;;;;;;;;5050955;28;20703;-75
2021/05/08 10:16:53;;;;;;;0.00;0.00;;;;;;;;;;5045375;28;20034;-75
2021/05/08 10:19:18;;;;;;;0.00;0.00;;;;;;;;;;5030992;28;20025;-75
2021/05/08 10:21:43;;;;;;;0.00;0.00;;;;;;;;;;5042121;28;20979;-75
2021/05/08 10:24:08;;;;;;;0.00;0.00;;;;;;;;;;5047184;28;20016;-74
2021/05/08 10:26:34;;;;;;;0.00;0.00;;;;;;;;;;5036770;28;20112;-75
2021/05/08 10:28:59;;;;;;;0.00;0.00;;;;;;;;;;5039502;28;20053;-75
2021/05/08 10:31:24;;;;;;;0.00;0.00;;;;;;;;;;5037914;28;20688;-76
2021/05/08 10:33:49;;;;;;;0.00;0.00;;;;;;;;;;5049264;28;20271;-76
2021/05/08 10:36:28;;;;;;;0.00;0.00;;;;;;;;;;5030668;28;20288;-76
2021/05/08 10:39:04;;;;;;;0.00;0.00;;;;;;;;;;5056446;28;20775;-75
2021/05/08 10:41:48;;;;;;;0.00;0.00;;;;;;;;;;5034237;28;20107;-75
2021/05/08 10:44:13;;;;;;;0.00;0.00;;;;;;;;;;5052309;28;20032;-76
2021/05/08 10:46:40;;;;;;;0.00;0.00;;;;;;;;;;5053733;28;20029;-75
2021/05/08 10:49:16;;;;;;;0.00;0.00;;;;;;;;;;5045903;28;20356;-74
2021/05/08 10:51:57;;;;;;;0.00;0.00;;;;;;;;;;5045640;28;20028;-75
2021/05/08 10:54:44;;;;;;;0.00;0.00;;;;;;;;;;5044461;28;20032;-74
2021/05/08 10:57:12;;;;;;;0.00;0.00;;;;;;;;;;5051576;28;20377;-73
2021/05/08 10:59:58;;;;;;;0.00;0.00;;;;;;;;;;5045993;28;20028;-74
2021/05/08 11:02:44;;;;;;;0.00;0.00;;;;;;;;;;5049310;28;20028;-73
2021/05/08 11:05:21;;;;;;;0.00;0.00;;;;;;;;;;5050363;28;20550;-74
2021/05/08 11:07:47;;;;;;;0.00;0.00;;;;;;;;;;5030854;28;20108;-74
2021/05/08 11:10:31;;;;;;;0.00;0.00;;;;;;;;;;5044354;28;20681;-74
2021/05/08 11:13:06;;;;;;;0.00;0.00;;;;;;;;;;5046629;28;20790;-74
2021/05/08 11:15:49;;;;;;;0.00;0.00;;;;;;;;;;5048931;28;20100;-73
2021/05/08 11:18:30;;;;;;;0.00;0.00;;;;;;;;;;5046753;28;20396;-75
2021/05/08 11:20:55;;;;;;;0.00;0.00;;;;;;;;;;5047949;28;20060;-74
2021/05/08 11:23:21;;;;;;;0.00;0.00;;;;;;;;;;5044016;28;20045;-74
2021/05/08 11:25:46;;;;;;;0.00;0.00;;;;;;;;;;5043552;28;20053;-74
2021/05/08 11:28:11;;;;;;;0.00;0.00;;;;;;;;;;5044354;28;20094;-74
2021/05/08 11:30:50;;;;;;;0.00;0.00;;;;;;;;;;5032588;28;20017;-74
2021/05/08 11:33:22;;;;;;;0.00;0.00;;;;;;;;;;5045163;28;20264;-74
2021/05/08 11:35:59;;;;;;;0.00;0.00;;;;;;;;;;5043978;28;20076;-76
2021/05/08 11:38:25;;;;;;;0.00;0.00;;;;;;;;;;5029601;28;20032;-76
2021/05/08 11:40:50;;;;;;;0.00;0.00;;;;;;;;;;5042111;28;20017;-75
2021/05/08 11:43:25;;;;;;;0.00;0.00;;;;;;;;;;5044511;28;20397;-76
2021/05/08 11:45:50;;;;;;;0.00;0.00;;;;;;;;;;5045365;28;20021;-76
2021/05/08 11:48:15;;;;;;;0.00;0.00;;;;;;;;;;5044806;28;20432;-76
2021/05/08 11:50:42;;;;;;;0.00;0.00;;;;;;;;;;5044941;28;20029;-75
2021/05/08 11:53:16;;;;;;;0.00;0.00;;;;;;;;;;5047740;28;20315;-76
2021/05/08 11:55:45;;;;;;;0.00;0.00;;;;;;;;;;5042245;28;20108;-75
2021/05/08 11:58:10;;;;;;;0.00;0.00;;;;;;;;;;5028167;28;20017;-77
2021/05/08 12:00:36;;;;;;;0.00;0.00;;;;;;;;;;5042406;28;20470;-76
2021/05/08 12:03:08;;;;;;;0.00;0.00;;;;;;;;;;5044539;28;20275;-76
2021/05/08 12:05:36;;;;;;;0.00;0.00;;;;;;;;;;5042783;28;20013;-76
2021/05/08 12:08:02;;;;;;;0.00;0.00;;;;;;;;;;5043062;28;20033;-75
2021/05/08 12:10:27;;;;;;;0.00;0.00;;;;;;;;;;5040756;28;20033;-78
2021/05/08 12:12:53;;;;;;;0.00;0.00;;;;;;;;;;5026254;28;20276;-77
2021/05/08 12:15:22;;;;;;;0.00;0.00;;;;;;;;;;5023244;28;20021;-76
2021/05/08 12:17:48;;;;;;;0.00;0.00;;;;;;;;;;5043367;28;20045;-76
2021/05/08 12:20:15;;;;;;;0.00;0.00;;;;;;;;;;5041342;28;20056;-76
2021/05/08 12:22:40;;;;;;;0.00;0.00;;;;;;;;;;5030463;28;20021;-74
2021/05/08 12:25:13;;;;;;;0.00;0.00;;;;;;;;;;5041968;28;20108;-75
2021/05/08 12:27:38;;;;;;;0.00;0.00;;;;;;;;;;5042796;28;20276;-74
2021/05/08 12:30:03;;;;;;;0.00;0.00;;;;;;;;;;5039878;28;20362;-73
2021/05/08 12:32:28;;;;;;;0.00;0.00;;;;;;;;;;5047929;28;20287;-71
2021/05/08 12:34:54;;;;;;;0.00;0.00;;;;;;;;;;5043050;28;20035;-73
2021/05/08 12:37:19;;;;;;;0.00;0.00;;;;;;;;;;5047100;28;20017;-74
2021/05/08 12:39:45;;;;;;;0.00;0.00;;;;;;;;;;5041805;28;20040;-72
2021/05/08 12:42:10;;;;;;;0.00;0.00;;;;;;;;;;5042566;28;20275;-73
2021/05/08 12:44:39;;;;;;;0.00;0.00;;;;;;;;;;5042242;28;20140;-73
2021/05/08 12:47:21;;;;;;;0.00;0.00;;;;;;;;;;5027843;28;20020;-74
2021/05/08 12:50:05;;;;;;;0.00;0.00;;;;;;;;;;5044577;28;20021;-73
2021/05/08 12:52:30;;;;;;;0.00;0.00;;;;;;;;;;5045363;28;20539;-72
2021/05/08 12:54:56;;;;;;;0.00;0.00;;;;;;;;;;5044623;28;20021;-72
2021/05/08 12:57:24;;;;;;;0.00;0.00;;;;;;;;;;5029359;28;20074;-73
2021/05/08 13:00:17;;;;;;;0.00;0.00;;;;;;;;;;5031458;28;20107;-73
2021/05/08 13:02:43;;;;;;;0.00;0.00;;;;;;;;;;5045738;28;20032;-73
2021/05/08 13:05:12;;;;;;;0.00;0.00;;;;;;;;;;5044257;28;20024;-73
2021/05/08 13:07:38;;;;;;;0.00;0.00;;;;;;;;;;5048422;28;20385;-73
2021/05/08 13:10:16;;;;;;;0.00;0.00;;;;;;;;;;5041125;28;20094;-73
2021/05/08 13:12:41;;;;;;;0.00;0.00;;;;;;;;;;5046560;28;20021;-72
2021/05/08 13:15:13;;;;;;;0.00;0.00;;;;;;;;;;5047843;28;20078;-73
2021/05/08 13:17:38;;;;;;;0.00;0.00;;;;;;;;;;5043152;28;20024;-73
2021/05/08 13:20:06;;;;;;;0.00;0.00;;;;;;;;;;5046174;28;20021;-74
2021/05/08 13:22:34;;;;;;;0.00;0.00;;;;;;;;;;5041496;28;20359;-74
2021/05/08 13:24:59;;;;;;;0.00;0.00;;;;;;;;;;5022129;28;20075;-73
2021/05/08 13:27:26;;;;;;;0.00;0.00;;;;;;;;;;5041923;28;20026;-73
2021/05/08 13:29:51;;;;;;;0.00;0.00;;;;;;;;;;5041430;28;20272;-73
2021/05/08 13:32:16;;;;;;;0.00;0.00;;;;;;;;;;5040856;28;20528;-73
2021/05/08 13:34:41;;;;;;;0.00;0.00;;;;;;;;;;5024212;28;20272;-73
2021/05/08 13:37:06;;;;;;;0.00;0.00;;;;;;;;;;5042323;28;20271;-72
2021/05/08 13:39:32;;;;;;;0.00;0.00;;;;;;;;;;5036261;28;20628;-72
2021/05/08 13:41:57;;;;;;;0.00;0.00;;;;;;;;;;5038128;28;20091;-72
2021/05/08 13:44:22;;;;;;;0.00;0.00;;;;;;;;;;5025122;28;20264;-72
2021/05/08 13:46:49;;;;;;;0.00;0.00;;;;;;;;;;5021509;28;20107;-72
2021/05/08 13:49:14;;;;;;;0.00;0.00;;;;;;;;;;5044307;28;20279;-72
2021/05/08 13:51:39;;;;;;;0.00;0.00;;;;;;;;;;5039795;28;20505;-73
2021/05/08 13:54:04;;;;;;;0.00;0.00;;;;;;;;;;5038309;28;20437;-72
2021/05/08 13:56:30;;;;;;;0.00;0.00;;;;;;;;;;5025773;28;20347;-72
2021/05/08 13:58:55;;;;;;;0.00;0.00;;;;;;;;;;5028760;28;20180;-72
2021/05/08 14:01:20;;;;;;;0.00;0.00;;;;;;;;;;5042301;28;20319;-72
2021/05/08 14:03:46;;;;;;;0.00;0.00;;;;;;;;;;5048764;28;20040;-72
2021/05/08 14:06:11;;;;;;;0.00;0.00;;;;;;;;;;5047885;28;20421;-73
2021/05/08 14:08:36;;;;;;;0.00;0.00;;;;;;;;;;5033919;28;20037;-72
2021/05/08 14:11:02;;;;;;;0.00;0.00;;;;;;;;;;5043369;28;20037;-72
2021/05/08 14:13:28;;;;;;;0.00;0.00;;;;;;;;;;5041612;28;20022;-72
2021/05/08 14:15:53;;;;;;;0.00;0.00;;;;;;;;;;5041791;28;20259;-72
2021/05/08 14:18:19;;;;;;;0.00;0.00;;;;;;;;;;5028350;28;20027;-72
2021/05/08 14:20:44;;;;;;;0.00;0.00;;;;;;;;;;5045320;28;20264;-72
2021/05/08 14:23:09;;;;;;;0.00;0.00;;;;;;;;;;5043770;28;20750;-72
2021/05/08 14:25:34;;;;;;;0.00;0.00;;;;;;;;;;5048677;28;20267;-72
2021/05/08 14:27:59;;;;;;;0.00;0.00;;;;;;;;;;5047261;28;20021;-72
2021/05/08 14:30:25;;;;;;;0.00;0.00;;;;;;;;;;5043535;28;20053;-72
2021/05/08 14:32:50;;;;;;;0.00;0.00;;;;;;;;;;5042066;28;20056;-72
2021/05/08 14:35:15;;;;;;;0.00;0.00;;;;;;;;;;5048320;28;20040;-73
2021/05/08 14:37:40;;;;;;;0.00;0.00;;;;;;;;;;5042394;28;20271;-72
2021/05/08 14:40:07;;;;;;;0.00;0.00;;;;;;;;;;5026207;28;20025;-72